createdAt,value
2023-05-09T00:01:06.027Z,101307.09
2023-05-09T00:05:32.294Z,101305.95
2023-05-09T00:09:33.658Z,101303.27
2023-05-09T00:13:35.127Z,101304.60
2023-05-09T00:17:37.903Z,101294.59
2023-05-09T00:21:39.311Z,101287.52
2023-05-09T00:25:40.650Z,101282.56
2023-05-09T00:29:42.723Z,101284.61
2023-05-09T00:33:44.119Z,101282.02
2023-05-09T00:37:45.492Z,101279.95
2023-05-09T00:41:48.120Z,101278.77
2023-05-09T00:45:49.870Z,101270.05
2023-05-09T00:49:51.399Z,101269.98
2023-05-09T00:53:52.769Z,101269.08
2023-05-09T00:57:54.287Z,101262.00
2023-05-09T01:01:55.665Z,101260.65
2023-05-09T01:06:22.057Z,101256.98
2023-05-09T01:10:42.795Z,101254.77
2023-05-09T01:14:56.510Z,101255.78
2023-05-09T01:19:05.226Z,101255.73
2023-05-09T01:23:35.934Z,101254.33
2023-05-09T01:28:18.654Z,101254.65
2023-05-09T01:32:24.882Z,101253.71
2023-05-09T01:36:29.858Z,101253.44
2023-05-09T01:40:34.285Z,101254.23
2023-05-09T01:44:39.375Z,101254.63
2023-05-09T01:48:41.969Z,101253.57
2023-05-09T01:52:47.472Z,101245.83
2023-05-09T01:56:49.352Z,101242.55
2023-05-09T02:00:51.250Z,101240.05
2023-05-09T02:04:58.008Z,101240.11
2023-05-09T02:09:00.863Z,101237.05
2023-05-09T02:13:03.269Z,101238.36
2023-05-09T02:17:06.188Z,101238.37
2023-05-09T02:21:18.138Z,101237.27
2023-05-09T02:25:19.571Z,101233.64
2023-05-09T02:29:25.425Z,101232.38
2023-05-09T02:33:33.745Z,101231.09
2023-05-09T02:37:36.554Z,101232.88
2023-05-09T02:41:37.957Z,101228.34
2023-05-09T02:45:39.540Z,101227.66
2023-05-09T02:49:43.096Z,101223.22
2023-05-09T02:53:44.401Z,101224.39
2023-05-09T02:57:46.842Z,101218.67
2023-05-09T03:01:48.349Z,101215.69
2023-05-09T03:05:50.167Z,101219.94
2023-05-09T03:09:51.522Z,101219.30
2023-05-09T03:14:43.598Z,101217.02
2023-05-09T03:18:45.102Z,101207.96
2023-05-09T03:22:47.784Z,101202.11
2023-05-09T03:27:15.967Z,101201.48
2023-05-09T03:35:40.547Z,101206.05
2023-05-09T03:39:43.278Z,101207.27
2023-05-09T03:43:46.382Z,101209.33
2023-05-09T03:47:48.970Z,101211.20
2023-05-09T03:51:51.984Z,101213.16
2023-05-09T03:55:54.561Z,101215.48
2023-05-09T03:59:57.109Z,101208.85
2023-05-09T04:03:59.778Z,101210.31
2023-05-09T04:08:01.891Z,101209.75
2023-05-09T04:12:03.360Z,101208.87
2023-05-09T04:16:05.016Z,101213.53
2023-05-09T04:20:07.588Z,101210.51
2023-05-09T04:24:08.977Z,101208.41
2023-05-09T04:28:14.161Z,101200.92
2023-05-09T04:32:15.554Z,101199.91
2023-05-09T04:36:17.013Z,101194.28
2023-05-09T04:40:18.481Z,101191.08
2023-05-09T04:44:20.980Z,101191.27
2023-05-09T04:48:22.387Z,101192.76
2023-05-09T04:52:23.799Z,101196.06
2023-05-09T04:56:25.561Z,101192.64
2023-05-09T05:00:26.924Z,101192.85
2023-05-09T05:04:31.072Z,101188.67
2023-05-09T05:09:16.830Z,101191.92
2023-05-09T05:18:08.204Z,101191.39
2023-05-09T05:22:09.648Z,101186.98
2023-05-09T05:26:14.345Z,101186.11
2023-05-09T05:30:16.016Z,101185.06
2023-05-09T05:34:19.679Z,101179.73
2023-05-09T05:38:21.064Z,101180.84
2023-05-09T05:42:26.359Z,101183.23
2023-05-09T05:46:27.677Z,101179.90
2023-05-09T05:50:35.900Z,101174.50
2023-05-09T05:54:37.257Z,101170.12
2023-05-09T05:58:38.661Z,101164.48
2023-05-09T06:02:44.276Z,101166.41
2023-05-09T06:06:46.130Z,101163.02
2023-05-09T06:10:47.580Z,101157.73
2023-05-09T06:14:48.960Z,101160.05
2023-05-09T06:18:55.515Z,101164.36
2023-05-09T06:22:57.413Z,101164.71
2023-05-09T06:26:58.850Z,101159.70
2023-05-09T06:31:01.566Z,101156.54
2023-05-09T06:35:03.152Z,101155.27
2023-05-09T06:39:04.600Z,101148.45
2023-05-09T06:43:07.058Z,101150.07
2023-05-09T07:09:27.294Z,101136.38
2023-05-09T07:29:35.686Z,101121.59
2023-05-09T07:33:37.221Z,101117.67
2023-05-09T07:37:38.660Z,101112.14
2023-05-09T07:41:40.088Z,101110.73
2023-05-09T07:45:41.490Z,101101.84
2023-05-09T07:49:44.736Z,101093.25
2023-05-09T07:53:46.208Z,101088.02
2023-05-09T07:57:47.674Z,101083.26
2023-05-09T08:01:50.236Z,101069.66
2023-05-09T08:05:55.773Z,101066.84
2023-05-09T08:09:57.288Z,101058.82
2023-05-09T08:13:58.768Z,101053.80
2023-05-09T08:18:11.722Z,101051.23
2023-05-09T08:22:17.970Z,101044.17
2023-05-09T08:26:19.398Z,101037.61
2023-05-09T08:30:20.889Z,101027.63
2023-05-09T08:34:26.619Z,101022.48
2023-05-09T08:38:28.245Z,101019.16
2023-05-09T08:42:31.470Z,101014.08
2023-05-09T08:46:42.151Z,101014.88
2023-05-09T08:50:44.143Z,101003.31
2023-05-09T08:54:45.869Z,100998.75
2023-05-09T08:59:05.048Z,100995.70
2023-05-09T09:03:07.055Z,100994.09
2023-05-09T09:07:09.380Z,100983.77
2023-05-09T09:11:12.983Z,100983.53
2023-05-09T09:15:17.153Z,100977.61
2023-05-09T09:19:21.676Z,100978.80
2023-05-09T09:23:25.381Z,100971.86
2023-05-09T09:27:27.336Z,100972.73
2023-05-09T09:47:41.960Z,100948.02
2023-05-09T09:51:58.480Z,100941.25
2023-05-09T09:55:59.892Z,100938.13
2023-05-09T10:00:01.387Z,100938.81
2023-05-09T10:04:02.980Z,100940.20
2023-05-09T10:09:03.414Z,100938.56
2023-05-09T10:13:10.163Z,100932.45
2023-05-09T10:17:14.158Z,100924.52
2023-05-09T10:21:15.782Z,100916.45
2023-05-09T10:25:20.909Z,100912.72
2023-05-09T10:29:58.978Z,100905.36
2023-05-09T10:34:09.577Z,100899.52
2023-05-09T10:38:12.381Z,100899.05
2023-05-09T10:42:13.979Z,100888.80
2023-05-09T10:46:16.826Z,100885.71
2023-05-09T10:50:20.768Z,100881.27
2023-05-09T10:54:30.081Z,100876.63
2023-05-09T10:58:35.818Z,100873.02
2023-05-09T11:02:38.675Z,100868.59
2023-05-09T11:06:48.587Z,100863.02
2023-05-09T11:10:51.369Z,100865.80
2023-05-09T11:14:55.393Z,100850.46
2023-05-09T11:18:57.158Z,100841.23
2023-05-09T11:23:00.670Z,100844.16
2023-05-09T11:27:13.808Z,100831.19
2023-05-09T11:31:17.305Z,100829.13
2023-05-09T11:35:22.960Z,100816.36
2023-05-09T11:39:25.049Z,100805.55
2023-05-09T11:43:26.930Z,100804.61
2023-05-09T11:47:30.217Z,100796.01
2023-05-09T11:51:35.951Z,100793.46
2023-05-09T11:55:37.825Z,100787.10
2023-05-09T11:59:39.951Z,100789.30
2023-05-09T12:03:44.376Z,100781.66
2023-05-09T12:07:47.255Z,100778.73
2023-05-09T12:11:50.128Z,100763.38
2023-05-09T12:16:00.245Z,100759.13
2023-05-09T12:20:05.262Z,100753.05
2023-05-09T12:24:07.429Z,100752.48
2023-05-09T12:28:09.505Z,100747.92
2023-05-09T12:32:15.976Z,100746.30
2023-05-09T12:36:18.255Z,100737.92
2023-05-09T12:40:20.114Z,100733.95
2023-05-09T12:44:23.932Z,100729.42
2023-05-09T12:48:26.235Z,100710.77
2023-05-09T12:52:50.200Z,100704.75
2023-05-09T12:57:00.703Z,100701.94
2023-05-09T13:01:06.130Z,100695.38
2023-05-09T13:05:15.143Z,100692.43
2023-05-09T13:09:17.707Z,100686.40
2023-05-09T13:13:21.142Z,100683.17
2023-05-09T13:17:22.970Z,100675.29
2023-05-09T13:21:24.833Z,100670.70
2023-05-09T13:25:26.424Z,100662.17
2023-05-09T13:29:27.991Z,100654.05
2023-05-09T13:33:29.750Z,100646.63
2023-05-09T13:37:31.324Z,100632.54
2023-05-09T13:41:38.222Z,100625.63
2023-05-09T13:45:40.392Z,100621.53
2023-05-09T13:49:42.177Z,100613.19
2023-05-09T13:53:43.806Z,100606.63
2023-05-09T13:57:45.753Z,100594.92
2023-05-09T14:01:47.571Z,100590.63
2023-05-09T14:05:50.440Z,100584.85
2023-05-09T14:09:58.772Z,100572.88
2023-05-09T14:14:11.498Z,100577.15
2023-05-09T14:18:17.006Z,100572.54
2023-05-09T14:22:21.023Z,100567.05
2023-05-09T14:26:22.970Z,100560.25
2023-05-09T14:30:26.268Z,100551.67
2023-05-09T14:34:28.467Z,100549.38
2023-05-09T14:38:32.519Z,100547.27
2023-05-09T14:42:35.004Z,100543.05
2023-05-09T14:46:37.195Z,100540.04
2023-05-09T14:50:39.502Z,100536.55
2023-05-09T14:54:41.648Z,100531.39
2023-05-09T14:58:43.488Z,100529.49
2023-05-09T15:02:45.376Z,100525.05
2023-05-09T15:06:47.341Z,100523.30
2023-05-09T15:10:50.271Z,100517.06
2023-05-09T15:14:53.956Z,100516.16
2023-05-09T15:18:56.599Z,100507.16
2023-05-09T15:22:58.715Z,100504.14
2023-05-09T15:27:00.550Z,100495.80
2023-05-09T15:31:02.888Z,100495.77
2023-05-09T15:35:06.216Z,100492.31
2023-05-09T15:39:08.243Z,100485.55
2023-05-09T15:43:10.060Z,100478.00
2023-05-09T15:47:11.829Z,100476.83
2023-05-09T15:51:13.768Z,100477.30
2023-05-09T15:55:15.728Z,100473.59
2023-05-09T15:59:18.262Z,100465.08
2023-05-09T16:03:20.241Z,100461.30
2023-05-09T16:07:22.917Z,100456.35
2023-05-09T16:11:24.972Z,100451.07
2023-05-09T16:15:27.086Z,100445.54
2023-05-09T16:19:28.897Z,100442.70
2023-05-09T16:23:30.787Z,100439.34
2023-05-09T16:27:32.677Z,100435.18
2023-05-09T16:31:35.720Z,100429.64
2023-05-09T16:35:37.755Z,100427.86
2023-05-09T16:39:39.590Z,100421.98
2023-05-09T16:43:42.179Z,100415.35
2023-05-09T16:47:44.055Z,100411.38
2023-05-09T16:51:45.942Z,100404.73
2023-05-09T16:55:48.479Z,100400.38
2023-05-09T16:59:50.324Z,100399.00
2023-05-09T17:03:52.229Z,100393.54
2023-05-09T17:07:54.173Z,100385.59
2023-05-09T17:11:55.952Z,100378.32
2023-05-09T17:15:57.721Z,100371.27
2023-05-09T17:20:03.808Z,100367.14
2023-05-09T17:24:06.392Z,100367.08
2023-05-09T17:28:08.596Z,100365.49
2023-05-09T17:32:10.374Z,100361.30
2023-05-09T17:36:12.301Z,100367.80
2023-05-09T17:40:14.477Z,100367.41
2023-05-09T17:44:16.636Z,100365.55
2023-05-09T17:48:18.630Z,100366.38
2023-05-09T17:52:21.038Z,100364.92
2023-05-09T17:56:23.364Z,100365.15
2023-05-09T18:00:25.091Z,100366.53
2023-05-09T18:04:29.703Z,100366.32
2023-05-09T18:08:31.585Z,100367.88
2023-05-09T18:12:36.845Z,100368.34
2023-05-09T18:16:39.217Z,100371.29
2023-05-09T18:20:41.779Z,100370.57
2023-05-09T18:24:44.150Z,100372.56
2023-05-09T18:28:45.952Z,100375.06
2023-05-09T18:32:47.753Z,100375.14
2023-05-09T18:36:50.899Z,100378.55
2023-05-09T18:40:52.851Z,100381.76
2023-05-09T18:44:54.600Z,100386.27
2023-05-09T18:48:56.636Z,100389.73
2023-05-09T18:52:59.107Z,100388.38
2023-05-09T18:57:01.987Z,100393.34
2023-05-09T19:01:04.262Z,100394.44
2023-05-09T19:05:07.502Z,100392.36
2023-05-09T19:09:09.451Z,100391.96
2023-05-09T19:13:11.960Z,100392.63
2023-05-09T19:17:15.172Z,100390.48
2023-05-09T19:21:18.223Z,100390.02
2023-05-09T19:25:20.066Z,100389.59
2023-05-09T19:29:21.780Z,100388.00
2023-05-09T19:33:24.436Z,100388.48
2023-05-09T19:37:26.341Z,100382.91
2023-05-09T19:41:28.044Z,100384.70
2023-05-09T19:45:30.555Z,100381.98
2023-05-09T19:49:32.312Z,100387.27
2023-05-09T19:53:34.083Z,100381.32
2023-05-09T19:57:35.823Z,100386.86
2023-05-09T20:01:37.602Z,100377.39
2023-05-09T20:09:58.774Z,100380.49
2023-05-09T20:14:00.481Z,100374.38
2023-05-09T20:18:03.017Z,100370.40
2023-05-09T20:22:08.303Z,100370.44
2023-05-09T20:26:10.483Z,100368.55
2023-05-09T20:30:12.581Z,100362.23
2023-05-09T20:34:17.560Z,100359.93
2023-05-09T20:38:20.175Z,100361.00
2023-05-09T20:42:22.842Z,100358.40
2023-05-09T20:46:25.076Z,100355.36
2023-05-09T20:50:26.881Z,100353.86
2023-05-09T20:54:30.290Z,100348.60
2023-05-09T20:58:33.721Z,100346.14
2023-05-09T21:02:35.635Z,100339.61
2023-05-09T21:06:37.993Z,100333.11
2023-05-09T21:10:39.655Z,100323.66
2023-05-09T21:14:41.484Z,100321.24
2023-05-09T21:18:43.299Z,100321.07
2023-05-09T21:22:45.578Z,100320.09
2023-05-09T21:26:47.374Z,100315.91
2023-05-09T21:30:53.264Z,100307.40
2023-05-09T21:34:55.137Z,100306.98
2023-05-09T21:38:56.939Z,100304.31
2023-05-09T21:42:58.667Z,100301.35
2023-05-09T21:47:00.660Z,100299.39
2023-05-09T21:51:04.213Z,100300.57
2023-05-09T21:55:05.973Z,100297.35
2023-05-09T21:59:08.520Z,100296.58
2023-05-09T22:03:10.618Z,100296.48
2023-05-09T22:07:12.639Z,100291.42
2023-05-09T22:11:15.252Z,100293.91
2023-05-09T22:15:17.766Z,100290.84
2023-05-09T22:19:19.888Z,100289.88
2023-05-09T22:23:21.715Z,100285.30
2023-05-09T22:27:24.535Z,100279.13
2023-05-09T22:31:26.332Z,100273.88
2023-05-09T22:35:28.141Z,100273.85
2023-05-09T22:39:30.350Z,100277.08
2023-05-09T22:43:38.692Z,100278.31
2023-05-09T22:47:41.455Z,100274.96
2023-05-09T22:51:43.592Z,100274.59
2023-05-09T22:55:55.521Z,100275.09
2023-05-09T22:59:57.321Z,100271.42
2023-05-09T23:03:59.063Z,100269.16
2023-05-09T23:08:00.783Z,100268.62
2023-05-09T23:12:02.914Z,100261.47
2023-05-09T23:16:05.202Z,100263.13
2023-05-09T23:20:08.220Z,100258.25
2023-05-09T23:24:11.892Z,100253.87
2023-05-09T23:28:13.671Z,100249.52
2023-05-09T23:32:15.471Z,100244.88
2023-05-09T23:36:17.423Z,100240.20
2023-05-09T23:40:19.605Z,100240.64
2023-05-09T23:44:21.636Z,100238.84
2023-05-09T23:48:24.324Z,100237.06
2023-05-09T23:52:26.114Z,100233.20
2023-05-09T23:56:28.078Z,100225.97
